Latest Weather Observations for Coen Airport

IDQ60801

Issued at 11:02 am EST Saturday 23 May 2015 (issued every 30 minutes, with the page automatically refreshed every 10 minutes)

About weather observations | Map of weather stations | Latest weather observations for QLD | Other Formats
Station Details ID: 027073 Name: COEN AIRPORT Lat: -13.76 Lon: 143.12 Height: 159.3 m
Data from the previous 72 hours. | See also: Recent months at Coen Airport
Date/Time
EST
Temp
°C
App
Temp
°C
Dew
Point
Rel
Hum
%
Delta-T
°C
Wind Press
QNH
hPa
Press
MSL
hPa
Rain
since 9 am
mm
Dir
 
Spd
km/h
Gust
km/h
Spd
kts
Gust
kts
23/11:00am 28.8 29.5 18.0 52 6.9 ENE 11 17 6 9 1016.1 - 0.0
23/10:30am 28.6 28.6 18.1 53 6.7 ENE 15 22 8 12 1016.3 - 0.0
23/10:00am 28.6 29.4 18.1 53 6.7 E 11 15 6 8 1016.7 - 0.0
23/09:30am 27.1 28.0 17.6 56 6.0 E 9 17 5 9 1016.9 - 0.0
23/09:00am 26.4 28.4 18.8 63 4.9 SE 6 9 3 5 1016.8 1016.0 0.0
23/08:30am 24.7 27.1 18.9 70 3.7 SE 4 9 2 5 1016.6 - 0.0
23/08:00am 22.9 24.8 19.7 82 2.1 SE 9 11 5 6 1016.4 - 0.0
23/07:30am 20.6 22.7 19.4 93 0.8 ESE 7 11 4 6 1016.2 - 0.0
23/07:00am 19.4 20.8 18.7 96 0.4 SSE 9 11 5 6 1016.2 - 0.0
23/06:30am 19.0 20.8 18.3 96 0.4 S 6 9 3 5 1015.9 - 0.0
23/06:00am 18.0 20.4 17.0 94 0.6 CALM 0 0 0 0 1015.6 - 0.0
23/05:30am 18.4 20.2 17.4 94 0.6 SSW 4 7 2 4 1015.3 - 0.0
23/05:00am 18.4 19.8 17.4 94 0.6 SE 6 7 3 4 1015.4 - 0.0
23/04:30am 18.4 21.0 17.4 94 0.6 CALM 0 0 0 0 1015.3 - 0.0
23/04:00am 18.4 20.6 17.4 94 0.6 NNE 2 6 1 3 1015.2 - 0.0
23/03:30am 19.2 22.0 18.0 93 0.7 CALM 0 0 0 0 1015.2 - 0.0
23/03:00am 19.8 22.6 18.8 94 0.6 S 2 6 1 3 1015.2 - 0.0
23/02:30am 19.8 22.8 18.5 92 0.8 CALM 0 7 0 4 1015.3 - 0.0
23/02:00am 20.1 22.0 18.9 93 0.8 SSW 7 9 4 5 1015.6 - 0.0
23/01:30am 20.1 22.0 18.9 93 0.8 SSE 7 11 4 6 1015.6 - 0.0
23/01:00am 20.0 22.9 18.3 90 1.1 CALM 0 0 0 0 1015.5 - 0.0
23/12:30am 20.4 23.3 18.3 88 1.3 CALM 0 0 0 0 1015.8 - 0.0
23/12:00am 21.4 24.8 19.3 88 1.3 CALM 0 0 0 0 1015.8 - 0.0
 
Date/Time
EST
Temp
°C
App
Temp
°C
Dew
Point
Rel
Hum
%
Delta-T
°C
Wind Press
QNH
hPa
Press
MSL
hPa
Rain
since 9 am
mm
Dir
 
Spd
km/h
Gust
km/h
Spd
kts
Gust
kts
22/11:30pm 22.0 25.1 19.4 85 1.7 ENE 2 7 1 4 1016.0 - 0.0
22/11:00pm 21.7 25.1 19.3 86 1.5 CALM 0 0 0 0 1016.2 - 0.0
22/10:30pm 22.1 25.2 19.5 85 1.7 NNW 2 7 1 4 1016.2 - 0.0
22/10:00pm 22.6 24.6 19.9 85 1.7 NE 9 11 5 6 1016.3 - 0.0
22/09:30pm 22.4 24.2 19.6 84 1.8 NNE 9 11 5 6 1016.2 - 0.0
22/09:00pm 22.4 25.4 19.2 82 2.0 NNE 2 9 1 5 1016.1 - 0.0
22/08:30pm 22.4 25.7 19.0 81 2.2 CALM 0 6 0 3 1015.9 - 0.0
22/08:00pm 23.0 25.1 19.0 78 2.6 ENE 6 9 3 5 1015.6 - 0.0
22/07:30pm 23.5 24.7 19.0 76 2.9 NE 11 15 6 8 1015.3 - 0.0
22/07:00pm 23.9 25.1 19.0 74 3.1 NE 11 17 6 9 1015.1 - 0.0
22/06:30pm 24.5 25.2 18.9 71 3.6 NE 13 20 7 11 1014.8 - 0.0
22/06:00pm 25.5 26.1 18.7 66 4.4 NE 13 19 7 10 1014.6 - 0.0
22/05:30pm 27.2 27.4 18.5 59 5.6 NE 15 24 8 13 1014.3 - 0.0
22/05:00pm 28.4 28.4 18.2 54 6.5 NE 15 24 8 13 1014.1 - 0.0
22/04:30pm 29.2 29.0 17.7 50 7.3 ENE 15 22 8 12 1013.8 - 0.0
22/04:00pm 30.6 29.8 17.0 44 8.6 ESE 17 22 9 12 1013.6 - 0.0
22/03:30pm 30.5 29.2 15.8 41 9.2 ESE 17 24 9 13 1013.7 - 0.0
22/03:00pm 30.7 29.9 17.0 43 8.7 E 17 26 9 14 1013.7 1012.8 0.0
22/02:30pm 31.2 29.7 16.8 42 9.1 SSE 20 30 11 16 1013.8 - 0.0
22/02:00pm 31.1 31.0 17.0 42 9.0 SE 13 20 7 11 1013.9 - 0.0
22/01:30pm 31.4 31.3 18.7 46 8.3 SSE 17 22 9 12 1014.1 - 0.0
22/01:00pm 30.0 30.0 18.1 49 7.7 S 15 20 8 11 1014.5 - 0.0
22/12:30pm 31.1 31.8 17.0 42 9.0 S 9 37 5 20 1014.8 - 0.0
22/12:00pm 30.2 30.2 18.0 48 7.9 SSE 15 26 8 14 1015.3 - 0.0
22/11:30am 29.4 30.9 18.8 53 6.9 WSW 9 15 5 8 1015.7 - 0.0
22/11:00am 28.4 30.8 18.8 56 6.2 S 4 11 2 6 1016.3 - 0.0
22/10:30am 28.1 30.3 19.3 58 5.7 SSW 6 15 3 8 1016.7 - 0.0
22/10:00am 27.4 30.1 19.5 62 5.2 N 4 9 2 5 1017.1 - 0.0
22/09:30am 26.1 28.8 19.5 67 4.3 NW 4 9 2 5 1017.2 - 0.0
22/09:00am 24.7 27.2 19.8 74 3.2 SSW 6 9 3 5 1017.2 1016.4 0.0
22/08:30am 23.2 25.7 20.2 83 2.0 SSW 7 9 4 5 1017.2 - 0.0
22/08:00am 21.4 24.1 19.5 89 1.2 SE 4 6 2 3 1017.2 - 0.0
22/07:30am 19.7 21.5 18.7 94 0.6 SSE 7 9 4 5 1017.1 - 0.0
22/07:00am 18.7 20.3 17.9 95 0.5 SSE 6 9 3 5 1016.9 - 0.0
22/06:30am 18.6 20.2 17.8 95 0.5 S 6 7 3 4 1016.4 - 0.0
22/06:00am 18.6 21.2 17.6 94 0.6 CALM 0 0 0 0 1016.4 - 0.0
22/05:30am 18.9 20.5 17.9 94 0.6 SE 6 7 3 4 1016.0 - 0.0
22/05:00am 19.1 22.0 18.3 95 0.5 CALM 0 0 0 0 1015.8 - 0.0
22/04:30am 18.7 20.6 17.7 94 0.6 SE 4 6 2 3 1015.5 - 0.0
22/04:00am 18.6 21.2 17.4 93 0.7 CALM 0 0 0 0 1015.5 - 0.0
22/03:30am 19.3 21.1 18.3 94 0.6 S 6 9 3 5 1015.6 - 0.0
22/03:00am 19.1 21.9 17.9 93 0.7 CALM 0 0 0 0 1015.7 - 0.0
22/02:30am 20.0 21.9 19.0 94 0.6 SSW 7 9 4 5 1015.7 - 0.0
22/02:00am 20.0 21.5 19.0 94 0.6 SSW 9 11 5 6 1016.0 - 0.0
22/01:30am 19.9 21.8 18.9 94 0.6 SSW 7 9 4 5 1016.0 - 0.0
22/01:00am 20.0 21.5 19.0 94 0.6 WSW 9 13 5 7 1016.0 - 0.0
22/12:30am 19.2 22.0 17.9 92 0.8 CALM 0 0 0 0 1015.9 - 0.0
22/12:00am 19.7 22.5 18.0 90 1.1 CALM 0 0 0 0 1016.3 - 0.0
 
Date/Time
EST
Temp
°C
App
Temp
°C
Dew
Point
Rel
Hum
%
Delta-T
°C
Wind Press
QNH
hPa
Press
MSL
hPa
Rain
since 9 am
mm
Dir
 
Spd
km/h
Gust
km/h
Spd
kts
Gust
kts
21/11:30pm 20.1 23.1 18.4 90 1.1 CALM 0 0 0 0 1016.6 - 0.0
21/11:00pm 20.3 23.0 18.6 90 1.1 SSE 2 6 1 3 1016.7 - 0.0
21/10:30pm 20.5 22.2 18.4 88 1.3 SE 7 7 4 4 1016.6 - 0.0
21/10:00pm 22.4 24.5 19.4 83 1.9 ENE 7 9 4 5 1016.5 - 0.0
21/09:30pm 22.4 24.6 19.6 84 1.8 NNE 7 11 4 6 1016.5 - 0.0
21/09:00pm 22.5 23.6 19.7 84 1.8 N 13 15 7 8 1016.3 - 0.0
21/08:30pm 22.8 24.0 19.8 83 1.9 NNE 13 19 7 10 1016.2 - 0.0
21/08:00pm 23.1 24.7 19.9 82 2.1 NE 11 17 6 9 1015.9 - 0.0
21/07:30pm 22.9 24.9 19.1 79 2.4 NNE 7 9 4 5 1015.7 - 0.0
21/07:00pm 24.3 26.0 19.4 74 3.2 NE 9 11 5 6 1015.5 - 0.0
21/06:30pm 25.1 26.6 19.0 69 3.9 NE 9 13 5 7 1015.1 - 0.0
21/06:00pm 26.6 28.1 19.0 63 4.9 ENE 9 17 5 9 1014.8 - 0.0
21/05:30pm 28.5 28.6 17.4 51 7.0 ESE 13 17 7 9 1014.3 - 0.0
21/05:00pm 29.4 29.6 17.6 49 7.5 ESE 13 19 7 10 1014.1 - 0.0
21/04:30pm 30.2 30.0 17.6 46 8.1 SE 15 20 8 11 1013.8 - 0.0
21/04:00pm 29.2 29.4 17.7 50 7.3 SSE 13 20 7 11 1013.8 - 0.0
21/03:30pm 31.0 30.8 17.7 45 8.5 SE 15 24 8 13 1013.7 - 0.0
21/03:00pm 31.5 31.8 17.8 44 8.8 SSE 13 22 7 12 1013.8 1012.9 0.0
21/02:30pm 30.1 31.2 18.8 50 7.4 SE 11 17 6 9 1014.0 - 0.0
21/02:00pm 29.5 30.2 18.9 53 6.9 ENE 13 22 7 12 1014.3 - 0.0
21/01:30pm 31.0 31.6 19.4 50 7.6 NE 15 20 8 11 1014.4 - 0.0
21/01:00pm 31.2 31.4 18.5 46 8.3 NNE 15 22 8 12 1014.9 - 0.0
21/12:30pm 31.4 32.7 19.4 49 7.9 ENE 11 19 6 10 1015.4 - 0.0
21/12:00pm 31.1 32.1 19.4 49 7.7 N 13 19 7 10 1016.0 1015.2 0.0
21/11:30am 30.1 31.5 19.5 53 7.0 E 11 32 6 17 1016.6 - 0.0
21/11:00am 29.4 31.3 19.7 56 6.4 NNE 9 15 5 8 1017.1 - 0.0
21/10:30am 28.9 31.5 20.1 59 5.8 N 6 9 3 5 1017.6 - 0.0
21/10:00am 27.4 29.6 19.7 63 5.0 NNE 7 15 4 8 1017.9 - 0.0
21/09:30am 26.3 29.6 19.9 68 4.2 NW 2 9 1 5 1018.0 - 0.0
21/09:00am 24.5 27.4 20.6 79 2.6 SSW 6 9 3 5 1018.1 1017.2 0.0
21/08:30am 23.1 25.7 20.4 85 1.8 SSE 7 9 4 5 1017.9 - 0.0
21/08:00am 21.3 23.6 19.8 91 1.0 S 7 9 4 5 1017.6 - 0.0
21/07:30am 20.1 22.1 19.1 94 0.6 SSE 7 9 4 5 1017.3 - 0.0
21/07:00am 19.2 21.0 18.4 95 0.5 S 6 7 3 4 1017.1 - 0.0
21/06:30am 19.2 21.0 18.4 95 0.5 SE 6 7 3 4 1016.8 - 0.0
21/06:00am 18.9 21.8 18.1 95 0.5 CALM 0 0 0 0 1016.7 1015.9 0.0
21/05:30am 18.9 21.3 17.9 94 0.6 S 2 6 1 3 1016.4 - 0.0
21/05:00am 19.2 22.0 18.0 93 0.7 CALM 0 0 0 0 1016.2 - 0.0
21/04:30am 19.8 21.7 19.0 95 0.5 S 7 9 4 5 1016.0 - 0.0
21/04:00am 19.7 21.6 18.9 95 0.5 SSW 7 9 4 5 1016.0 - 0.0
21/03:30am 19.5 22.2 18.7 95 0.5 S 2 7 1 4 1015.9 - 0.0
21/03:00am 19.4 21.7 18.6 95 0.5 S 4 7 2 4 1016.0 - 0.0
21/02:30am 19.4 21.2 18.4 94 0.6 SSE 6 7 3 4 1016.1 - 0.0
21/02:00am 19.4 22.4 18.4 94 0.6 CALM 0 6 0 3 1016.1 - 0.0
21/01:30am 19.3 21.7 18.0 92 0.8 SSW 2 9 1 5 1016.2 - 0.0
21/01:00am 19.8 22.5 18.6 93 0.8 W 2 9 1 5 1016.4 - 0.0
21/12:30am 20.2 23.3 18.7 91 0.9 CALM 0 6 0 3 1016.5 - 0.0
21/12:00am 20.2 23.2 18.5 90 1.1 CALM 0 6 0 3 1016.6 - 0.0
 
Date/Time
EST
Temp
°C
App
Temp
°C
Dew
Point
Rel
Hum
%
Delta-T
°C
Wind Press
QNH
hPa
Press
MSL
hPa
Rain
since 9 am
mm
Dir
 
Spd
km/h
Gust
km/h
Spd
kts
Gust
kts
20/11:30pm 20.7 24.0 19.0 90 1.1 CALM 0 0 0 0 1016.7 - 0.0
20/11:00pm 21.6 25.0 19.3 87 1.5 CALM 0 0 0 0 1016.8 - 0.0
20/10:30pm 22.3 24.9 20.4 89 1.2 NNE 7 11 4 6 1016.7 - 0.0
20/10:00pm 22.2 24.7 20.3 89 1.2 N 7 11 4 6 1016.6 - 0.0
20/09:30pm 22.4 24.5 20.1 87 1.5 N 9 13 5 7 1016.5 - 0.0
20/09:00pm 22.2 23.9 20.1 88 1.4 N 11 13 6 7 1016.4 - 0.0
20/08:30pm 22.2 24.9 19.4 84 1.8 N 4 7 2 4 1016.2 - 0.0
20/08:00pm 23.1 25.3 19.7 81 2.2 NE 7 13 4 7 1015.9 - 0.0
20/07:30pm 23.3 25.2 19.0 77 2.7 NE 7 11 4 6 1015.6 - 0.0
20/07:00pm 24.0 25.6 19.1 74 3.1 NE 9 13 5 7 1015.3 - 0.0
20/06:30pm 24.7 25.9 19.1 71 3.6 ENE 11 19 6 10 1015.2 - 0.0
20/06:00pm 25.6 26.4 19.0 67 4.2 ENE 13 22 7 12 1015.0 - 0.0
20/05:30pm 26.9 27.2 18.7 60 5.3 NE 15 20 8 11 1014.9 - 0.0
20/05:00pm 28.2 28.4 18.6 56 6.2 NE 15 22 8 12 1014.4 - 0.0
20/04:30pm 28.9 28.5 18.1 52 6.9 ENE 17 22 9 12 1014.3 - 0.0
20/04:00pm 29.0 28.2 18.1 51 7.0 NE 19 30 10 16 1014.0 - 0.0
20/03:30pm 29.8 29.1 18.3 50 7.4 NNE 19 26 10 14 1013.8 - 0.0
20/03:00pm 29.8 29.8 18.9 52 7.1 ENE 17 24 9 13 1013.8 1012.9 0.0
20/02:30pm 30.6 30.6 18.0 47 8.1 ENE 15 24 8 13 1014.1 - 0.0
20/02:00pm 29.9 29.7 17.7 48 7.8 E 15 20 8 11 1014.6 - 0.0
20/01:30pm 30.8 31.2 18.2 47 8.1 E 13 20 7 11 1014.7 - 0.0
20/01:00pm 29.2 29.0 18.6 52 6.9 NE 17 30 9 16 1015.0 - 0.0
20/12:30pm 30.0 29.4 18.4 49 7.5 NE 19 28 10 15 1015.4 - 0.0
20/12:00pm 30.3 30.2 18.7 50 7.5 NE 17 26 9 14 1015.8 1015.0 0.0
20/11:30am 30.3 30.6 18.7 50 7.5 NE 15 22 8 12 1015.9 - 0.0

Other Formats:

Comma delimited format used in spreadsheet applications
http://www.bom.gov.au/fwo/IDQ60801/IDQ60801.94183.axf

JavaScript Object Notation format (JSON) in row-major order
http://www.bom.gov.au/fwo/IDQ60801/IDQ60801.94183.json